GLD166 SSTE-SBLJ
Flight info
| Callsign | GLD166 |
|---|---|
| Flight time | 0h 46m |
| Altitude | 5500 |
| Route | 2920S04949W 2915S04951W 2911S04953W 2905S04954W 2859S04955W 2848S04957W 2842S04959W 2828S05001W 2809S05012W |
| Aircraft | C182/M-SDFGIRY/S |
Departure
| Time | 2026-05-06 23:53 |
|---|---|
| Airport | Torres Airport (SSTE) |
Arrival
| Time | 2026-05-07 00:39 |
|---|---|
| Airport | Lages Airport (SBLJ) |
| Time | Latitude | Longitude | Altitude | Speed | Heading |
|---|---|---|---|---|---|
| 2026-05-06 23:50 | -29.41279 | -49.80666 | 41 ft | 0 kts | 305° |
| 2026-05-06 23:51 | -29.41268 | -49.80683 | 41 ft | 7 kts | 306° |
| 2026-05-06 23:51 | -29.41236 | -49.80762 | 41 ft | 15 kts | 258° |
| 2026-05-06 23:51 | -29.41330 | -49.80865 | 39 ft | 23 kts | 219° |
| 2026-05-06 23:51 | -29.41476 | -49.81004 | 37 ft | 31 kts | 221° |
| 2026-05-06 23:52 | -29.41582 | -49.81073 | 38 ft | 7 kts | 39° |
| 2026-05-06 23:52 | -29.41436 | -49.80955 | 37 ft | 51 kts | 37° |
| 2026-05-06 23:52 | -29.41054 | -49.80622 | 101 ft | 80 kts | 35° |
| 2026-05-06 23:52 | -29.40578 | -49.80212 | 349 ft | 86 kts | 28° |
| 2026-05-06 23:53 | -29.39979 | -49.80087 | 620 ft | 95 kts | 347° |
| 2026-05-06 23:53 | -29.39484 | -49.80613 | 837 ft | 115 kts | 292° |
| 2026-05-06 23:53 | -29.39397 | -49.81593 | 972 ft | 128 kts | 295° |
| 2026-05-06 23:53 | -29.38690 | -49.82157 | 1100 ft | 129 kts | 348° |
| 2026-05-06 23:54 | -29.37801 | -49.82391 | 1286 ft | 131 kts | 349° |
| 2026-05-06 23:54 | -29.36894 | -49.82599 | 1482 ft | 137 kts | 351° |
| 2026-05-06 23:54 | -29.35962 | -49.82809 | 1652 ft | 136 kts | 349° |
| 2026-05-06 23:54 | -29.35011 | -49.83027 | 1835 ft | 142 kts | 351° |
| 2026-05-06 23:55 | -29.34053 | -49.83241 | 1992 ft | 137 kts | 350° |
| 2026-05-06 23:55 | -29.33130 | -49.83455 | 2153 ft | 136 kts | 351° |
| 2026-05-06 23:55 | -29.32193 | -49.83663 | 2317 ft | 139 kts | 351° |
| 2026-05-06 23:55 | -29.31251 | -49.83872 | 2487 ft | 136 kts | 351° |
| 2026-05-06 23:56 | -29.30336 | -49.84075 | 2657 ft | 133 kts | 351° |
| 2026-05-06 23:56 | -29.29420 | -49.84266 | 2838 ft | 137 kts | 351° |
| 2026-05-06 23:56 | -29.28475 | -49.84463 | 2994 ft | 136 kts | 351° |
| 2026-05-06 23:56 | -29.27558 | -49.84658 | 3154 ft | 132 kts | 347° |
| 2026-05-06 23:57 | -29.26692 | -49.84981 | 3335 ft | 132 kts | 343° |
| 2026-05-06 23:57 | -29.25803 | -49.85311 | 3503 ft | 137 kts | 343° |
| 2026-05-06 23:57 | -29.24889 | -49.85648 | 3672 ft | 139 kts | 342° |
| 2026-05-06 23:57 | -29.23973 | -49.85982 | 3839 ft | 140 kts | 342° |
| 2026-05-06 23:58 | -29.23048 | -49.86314 | 4012 ft | 139 kts | 343° |
| 2026-05-06 23:58 | -29.22120 | -49.86639 | 4180 ft | 138 kts | 342° |
| 2026-05-06 23:58 | -29.21201 | -49.86958 | 4352 ft | 138 kts | 343° |
| 2026-05-06 23:58 | -29.20276 | -49.87273 | 4520 ft | 138 kts | 343° |
| 2026-05-06 23:59 | -29.19368 | -49.87578 | 4695 ft | 135 kts | 342° |
| 2026-05-06 23:59 | -29.18462 | -49.87872 | 4854 ft | 135 kts | 343° |
| 2026-05-06 23:59 | -29.17571 | -49.88157 | 5030 ft | 133 kts | 343° |
| 2026-05-06 23:59 | -29.16676 | -49.88440 | 5199 ft | 133 kts | 343° |
| 2026-05-07 00:00 | -29.15776 | -49.88721 | 5360 ft | 134 kts | 343° |
| 2026-05-07 00:00 | -29.14879 | -49.88995 | 5536 ft | 133 kts | 343° |
| 2026-05-07 00:00 | -29.13988 | -49.89271 | 5706 ft | 131 kts | 343° |
| 2026-05-07 00:00 | -29.13397 | -49.89451 | 5724 ft | 136 kts | 343° |
| 2026-05-07 00:01 | -29.12122 | -49.89846 | 5607 ft | 148 kts | 343° |
| 2026-05-07 00:01 | -29.11109 | -49.90165 | 5541 ft | 153 kts | 343° |
| 2026-05-07 00:01 | -29.10103 | -49.90477 | 5551 ft | 152 kts | 343° |
| 2026-05-07 00:01 | -29.09094 | -49.90796 | 5545 ft | 149 kts | 343° |
| 2026-05-07 00:02 | -29.08106 | -49.91085 | 5547 ft | 144 kts | 344° |
| 2026-05-07 00:02 | -29.07137 | -49.91374 | 5528 ft | 142 kts | 342° |
| 2026-05-07 00:02 | -29.06200 | -49.91652 | 5537 ft | 140 kts | 343° |
| 2026-05-07 00:02 | -29.05256 | -49.91939 | 5573 ft | 143 kts | 345° |
| 2026-05-07 00:03 | -29.04277 | -49.92247 | 5530 ft | 146 kts | 343° |
| 2026-05-07 00:03 | -29.03309 | -49.92549 | 5526 ft | 142 kts | 343° |
| 2026-05-07 00:03 | -29.02365 | -49.92846 | 5529 ft | 141 kts | 343° |
| 2026-05-07 00:03 | -29.01408 | -49.93141 | 5536 ft | 143 kts | 343° |
| 2026-05-07 00:04 | -29.00449 | -49.93437 | 5539 ft | 145 kts | 343° |
| 2026-05-07 00:04 | -28.99481 | -49.93737 | 5542 ft | 144 kts | 343° |
| 2026-05-07 00:04 | -28.98508 | -49.94042 | 5542 ft | 146 kts | 343° |
| 2026-05-07 00:04 | -28.97500 | -49.94356 | 5571 ft | 156 kts | 343° |
| 2026-05-07 00:05 | -28.96413 | -49.94661 | 5558 ft | 163 kts | 347° |
| 2026-05-07 00:05 | -28.95311 | -49.94854 | 5536 ft | 155 kts | 351° |
| 2026-05-07 00:05 | -28.94254 | -49.94916 | 5547 ft | 151 kts | 356° |
| 2026-05-07 00:05 | -28.93213 | -49.94948 | 5546 ft | 149 kts | 356° |
| 2026-05-07 00:06 | -28.92134 | -49.94977 | 5600 ft | 162 kts | 356° |
| 2026-05-07 00:06 | -28.90999 | -49.95018 | 5548 ft | 156 kts | 356° |
| 2026-05-07 00:06 | -28.89951 | -49.95060 | 5548 ft | 144 kts | 357° |
| 2026-05-07 00:06 | -28.88911 | -49.95095 | 5541 ft | 154 kts | 356° |
| 2026-05-07 00:07 | -28.87825 | -49.95135 | 5526 ft | 159 kts | 355° |
| 2026-05-07 00:07 | -28.86724 | -49.95165 | 5599 ft | 159 kts | 358° |
| 2026-05-07 00:07 | -28.85619 | -49.95205 | 5525 ft | 154 kts | 356° |
| 2026-05-07 00:07 | -28.84545 | -49.95240 | 5551 ft | 155 kts | 356° |
| 2026-05-07 00:08 | -28.83462 | -49.95272 | 5561 ft | 157 kts | 356° |
| 2026-05-07 00:08 | -28.82738 | -49.95296 | 5571 ft | 157 kts | 356° |
| 2026-05-07 00:08 | -28.81639 | -49.95325 | 5554 ft | 157 kts | 356° |
| 2026-05-07 00:08 | -28.80558 | -49.95353 | 5559 ft | 155 kts | 356° |
| 2026-05-07 00:09 | -28.79129 | -49.95390 | 5555 ft | 155 kts | 356° |
| 2026-05-07 00:09 | -28.78047 | -49.95426 | 5559 ft | 155 kts | 356° |
| 2026-05-07 00:09 | -28.76967 | -49.95471 | 5564 ft | 158 kts | 356° |
| 2026-05-07 00:09 | -28.75861 | -49.95494 | 5575 ft | 162 kts | 356° |
| 2026-05-07 00:10 | -28.75110 | -49.95517 | 5578 ft | 164 kts | 356° |
| 2026-05-07 00:10 | -28.73971 | -49.95556 | 5584 ft | 163 kts | 356° |
| 2026-05-07 00:10 | -28.72840 | -49.95692 | 5569 ft | 161 kts | 347° |
| 2026-05-07 00:10 | -28.71781 | -49.96000 | 5588 ft | 155 kts | 345° |
| 2026-05-07 00:11 | -28.70720 | -49.96304 | 5578 ft | 159 kts | 346° |
| 2026-05-07 00:11 | -28.69629 | -49.96590 | 5582 ft | 163 kts | 346° |
| 2026-05-07 00:11 | -28.68531 | -49.96881 | 5566 ft | 158 kts | 346° |
| 2026-05-07 00:11 | -28.67473 | -49.97161 | 5563 ft | 156 kts | 346° |
| 2026-05-07 00:12 | -28.66432 | -49.97447 | 5567 ft | 152 kts | 346° |
| 2026-05-07 00:12 | -28.65417 | -49.97728 | 5574 ft | 152 kts | 345° |
| 2026-05-07 00:12 | -28.64373 | -49.98009 | 5588 ft | 156 kts | 346° |
| 2026-05-07 00:12 | -28.63308 | -49.98295 | 5585 ft | 158 kts | 346° |
| 2026-05-07 00:13 | -28.62248 | -49.98587 | 5584 ft | 155 kts | 345° |
| 2026-05-07 00:13 | -28.61191 | -49.98873 | 5588 ft | 156 kts | 346° |
| 2026-05-07 00:13 | -28.60128 | -49.99156 | 5572 ft | 156 kts | 346° |
| 2026-05-07 00:13 | -28.59084 | -49.99430 | 5589 ft | 155 kts | 346° |
| 2026-05-07 00:14 | -28.58007 | -49.99719 | 5595 ft | 162 kts | 346° |
| 2026-05-07 00:14 | -28.56942 | -50.00005 | 5599 ft | 158 kts | 347° |
| 2026-05-07 00:14 | -28.55855 | -50.00297 | 5578 ft | 160 kts | 346° |
| 2026-05-07 00:14 | -28.54801 | -50.00589 | 5591 ft | 154 kts | 345° |
| 2026-05-07 00:15 | -28.53738 | -50.00885 | 5601 ft | 161 kts | 346° |
| 2026-05-07 00:15 | -28.52665 | -50.01189 | 5580 ft | 156 kts | 345° |
| 2026-05-07 00:15 | -28.51633 | -50.01471 | 5585 ft | 150 kts | 347° |
| 2026-05-07 00:15 | -28.50593 | -50.01755 | 5575 ft | 154 kts | 346° |
| 2026-05-07 00:16 | -28.49557 | -50.02039 | 5581 ft | 153 kts | 346° |
| 2026-05-07 00:16 | -28.48558 | -50.02305 | 5558 ft | 146 kts | 346° |
| 2026-05-07 00:16 | -28.47573 | -50.02566 | 5571 ft | 146 kts | 346° |
| 2026-05-07 00:16 | -28.46589 | -50.02831 | 5556 ft | 142 kts | 346° |
| 2026-05-07 00:17 | -28.45606 | -50.03088 | 5565 ft | 146 kts | 346° |
| 2026-05-07 00:17 | -28.44595 | -50.03352 | 5561 ft | 153 kts | 346° |
| 2026-05-07 00:17 | -28.43573 | -50.03633 | 5568 ft | 150 kts | 346° |
| 2026-05-07 00:17 | -28.42542 | -50.03928 | 5580 ft | 157 kts | 346° |
| 2026-05-07 00:18 | -28.41497 | -50.04218 | 5574 ft | 152 kts | 346° |
| 2026-05-07 00:18 | -28.40461 | -50.04515 | 5578 ft | 154 kts | 346° |
| 2026-05-07 00:18 | -28.39414 | -50.04809 | 5579 ft | 156 kts | 346° |
| 2026-05-07 00:18 | -28.38356 | -50.05110 | 5579 ft | 157 kts | 346° |
| 2026-05-07 00:19 | -28.37302 | -50.05404 | 5566 ft | 153 kts | 346° |
| 2026-05-07 00:19 | -28.36288 | -50.05686 | 5576 ft | 149 kts | 346° |
| 2026-05-07 00:19 | -28.35260 | -50.05966 | 5558 ft | 154 kts | 346° |
| 2026-05-07 00:19 | -28.34239 | -50.06240 | 5581 ft | 151 kts | 346° |
| 2026-05-07 00:20 | -28.33226 | -50.06516 | 5574 ft | 147 kts | 346° |
| 2026-05-07 00:20 | -28.32220 | -50.06783 | 5565 ft | 150 kts | 346° |
| 2026-05-07 00:20 | -28.31200 | -50.07062 | 5574 ft | 152 kts | 346° |
| 2026-05-07 00:20 | -28.30158 | -50.07354 | 5573 ft | 154 kts | 346° |
| 2026-05-07 00:21 | -28.29128 | -50.07632 | 5559 ft | 154 kts | 346° |
| 2026-05-07 00:21 | -28.28080 | -50.07926 | 5558 ft | 152 kts | 346° |
| 2026-05-07 00:21 | -28.27069 | -50.08203 | 5574 ft | 154 kts | 346° |
| 2026-05-07 00:21 | -28.26015 | -50.08505 | 5569 ft | 156 kts | 346° |
| 2026-05-07 00:22 | -28.25014 | -50.08916 | 5576 ft | 154 kts | 334° |
| 2026-05-07 00:22 | -28.24077 | -50.09556 | 5570 ft | 157 kts | 330° |
| 2026-05-07 00:22 | -28.23153 | -50.10204 | 5551 ft | 153 kts | 330° |
| 2026-05-07 00:22 | -28.22256 | -50.10834 | 5549 ft | 150 kts | 330° |
| 2026-05-07 00:23 | -28.21360 | -50.11460 | 5578 ft | 156 kts | 329° |
| 2026-05-07 00:23 | -28.20428 | -50.12109 | 5548 ft | 155 kts | 330° |
| 2026-05-07 00:23 | -28.19513 | -50.12750 | 5547 ft | 156 kts | 330° |
| 2026-05-07 00:23 | -28.18603 | -50.13391 | 5565 ft | 156 kts | 330° |
| 2026-05-07 00:24 | -28.17668 | -50.14041 | 5565 ft | 158 kts | 331° |
| 2026-05-07 00:24 | -28.16738 | -50.14682 | 5567 ft | 157 kts | 330° |
| 2026-05-07 00:24 | -28.15801 | -50.15330 | 5573 ft | 157 kts | 330° |
| 2026-05-07 00:24 | -28.14867 | -50.15977 | 5542 ft | 156 kts | 330° |
| 2026-05-07 00:25 | -28.13949 | -50.16603 | 5559 ft | 154 kts | 330° |
| 2026-05-07 00:25 | -28.13021 | -50.17238 | 5551 ft | 157 kts | 330° |
| 2026-05-07 00:25 | -28.12101 | -50.17859 | 5532 ft | 151 kts | 330° |
| 2026-05-07 00:25 | -28.11201 | -50.18475 | 5540 ft | 152 kts | 330° |
| 2026-05-07 00:26 | -28.10294 | -50.19092 | 5536 ft | 153 kts | 330° |
| 2026-05-07 00:26 | -28.09381 | -50.19712 | 5527 ft | 151 kts | 330° |
| 2026-05-07 00:26 | -28.08481 | -50.20320 | 5532 ft | 151 kts | 330° |
| 2026-05-07 00:26 | -28.07589 | -50.20931 | 5536 ft | 153 kts | 330° |
| 2026-05-07 00:27 | -28.06675 | -50.21553 | 5534 ft | 152 kts | 332° |
| 2026-05-07 00:27 | -28.05732 | -50.22086 | 5539 ft | 152 kts | 336° |
| 2026-05-07 00:27 | -28.04764 | -50.22621 | 5529 ft | 157 kts | 335° |
| 2026-05-07 00:27 | -28.03802 | -50.23156 | 5545 ft | 154 kts | 335° |
| 2026-05-07 00:28 | -28.02818 | -50.23703 | 5554 ft | 161 kts | 335° |
| 2026-05-07 00:28 | -28.01782 | -50.24195 | 5536 ft | 159 kts | 345° |
| 2026-05-07 00:28 | -28.00720 | -50.24478 | 5541 ft | 156 kts | 348° |
| 2026-05-07 00:28 | -27.99674 | -50.24756 | 5529 ft | 152 kts | 347° |
| 2026-05-07 00:29 | -27.98638 | -50.24991 | 5528 ft | 154 kts | 354° |
| 2026-05-07 00:29 | -27.97549 | -50.25025 | 5462 ft | 156 kts | 359° |
| 2026-05-07 00:30 | -27.94301 | -50.25096 | 5319 ft | 154 kts | 359° |
| 2026-05-07 00:30 | -27.93232 | -50.25133 | 5270 ft | 154 kts | 359° |
| 2026-05-07 00:30 | -27.92162 | -50.25168 | 5241 ft | 155 kts | 359° |
| 2026-05-07 00:30 | -27.91063 | -50.25205 | 5184 ft | 159 kts | 358° |
| 2026-05-07 00:31 | -27.89940 | -50.25226 | 5140 ft | 164 kts | 360° |
| 2026-05-07 00:31 | -27.88836 | -50.25272 | 5128 ft | 157 kts | 359° |
| 2026-05-07 00:31 | -27.87766 | -50.25315 | 5132 ft | 153 kts | 359° |
| 2026-05-07 00:31 | -27.86687 | -50.25353 | 5111 ft | 158 kts | 359° |
| 2026-05-07 00:32 | -27.85599 | -50.25385 | 5068 ft | 154 kts | 358° |
| 2026-05-07 00:32 | -27.84515 | -50.25428 | 4983 ft | 157 kts | 357° |
| 2026-05-07 00:32 | -27.83430 | -50.25504 | 4931 ft | 159 kts | 355° |
| 2026-05-07 00:32 | -27.82315 | -50.25666 | 4829 ft | 161 kts | 352° |
| 2026-05-07 00:33 | -27.81289 | -50.25889 | 4635 ft | 136 kts | 347° |
| 2026-05-07 00:33 | -27.80424 | -50.26239 | 4451 ft | 135 kts | 341° |
| 2026-05-07 00:33 | -27.79542 | -50.26646 | 4280 ft | 140 kts | 338° |
| 2026-05-07 00:33 | -27.78683 | -50.27137 | 4108 ft | 141 kts | 335° |
| 2026-05-07 00:34 | -27.77813 | -50.27633 | 4080 ft | 136 kts | 336° |
| 2026-05-07 00:34 | -27.76983 | -50.28121 | 4080 ft | 138 kts | 331° |
| 2026-05-07 00:34 | -27.76546 | -50.29093 | 4010 ft | 149 kts | 274° |
| 2026-05-07 00:34 | -27.76825 | -50.30228 | 4000 ft | 150 kts | 253° |
| 2026-05-07 00:35 | -27.77373 | -50.31212 | 3958 ft | 154 kts | 217° |
| 2026-05-07 00:35 | -27.78396 | -50.31394 | 3900 ft | 150 kts | 168° |
| 2026-05-07 00:35 | -27.79404 | -50.31155 | 3915 ft | 147 kts | 167° |
| 2026-05-07 00:35 | -27.80320 | -50.30765 | 3903 ft | 135 kts | 152° |
| 2026-05-07 00:36 | -27.81108 | -50.30249 | 3891 ft | 128 kts | 146° |
| 2026-05-07 00:36 | -27.81857 | -50.29731 | 3886 ft | 124 kts | 146° |
| 2026-05-07 00:36 | -27.82591 | -50.29222 | 3884 ft | 122 kts | 146° |
| 2026-05-07 00:36 | -27.82979 | -50.28481 | 3783 ft | 105 kts | 86° |
| 2026-05-07 00:37 | -27.82758 | -50.27785 | 3719 ft | 89 kts | 61° |
| 2026-05-07 00:37 | -27.82211 | -50.27620 | 3575 ft | 89 kts | 338° |
| 2026-05-07 00:37 | -27.81644 | -50.27828 | 3520 ft | 84 kts | 359° |
| 2026-05-07 00:37 | -27.81099 | -50.27676 | 3484 ft | 79 kts | 27° |
| 2026-05-07 00:38 | -27.80646 | -50.27288 | 3453 ft | 88 kts | 16° |
| 2026-05-07 00:38 | -27.80039 | -50.27258 | 3421 ft | 91 kts | 356° |
| 2026-05-07 00:38 | -27.79420 | -50.27365 | 3345 ft | 81 kts | 348° |
| 2026-05-07 00:38 | -27.78899 | -50.27670 | 3121 ft | 86 kts | 329° |
| 2026-05-07 00:39 | -27.78423 | -50.28006 | 3055 ft | 75 kts | 330° |
| 2026-05-07 00:39 | -27.78103 | -50.28221 | 3042 ft | 31 kts | 332° |
| 2026-05-07 00:39 | -27.78077 | -50.28257 | 3040 ft | 11 kts | 142° |
| 2026-05-07 00:39 | -27.78207 | -50.28159 | 3047 ft | 33 kts | 147° |
| 2026-05-07 00:40 | -27.78236 | -50.28016 | 3048 ft | 3 kts | 61° |
| 2026-05-07 00:40 | -27.78238 | -50.27981 | 3049 ft | 9 kts | 104° |
| 2026-05-07 00:40 | -27.78238 | -50.27969 | 3049 ft | 0 kts | 70° |